This is the latest recevied weather packets stored in our database for station/object 2E0RGX-13. If no packets are shown the sender has not sent any weather packets the latest 10 day(s).
| Time | Temp. | Humidity | Pressure | Rain* | Wind** | Luminosity | Snow |
|---|---|---|---|---|---|---|---|
| 1777340892 | 9.44° C | 78% | 1020.5 hPa | 0 mm | - | 0 W/m² | - |
| 1777340284 | 10° C | 78% | 1020.7 hPa | 0 mm | - | 0 W/m² | - |
| 1777339676 | 10° C | 78% | 1020.7 hPa | 0 mm | - | 0 W/m² | - |
| 1777339372 | 10° C | 79% | 1020.6 hPa | 0 mm | - | 0 W/m² | - |
| 1777339068 | 10° C | 79% | 1020.6 hPa | 0 mm | - | 0 W/m² | - |
| 1777338156 | 10° C | 79% | 1020.3 hPa | 0 mm | - | 0 W/m² | - |
| 1777337244 | 10° C | 79% | 1020.4 hPa | 0 mm | - | 0 W/m² | - |
| 1777336940 | 10.56° C | 79% | 1020.5 hPa | 0 mm | - | 0 W/m² | - |
| 1777336636 | 10.56° C | 79% | 1020.5 hPa | 0 mm | - | 0 W/m² | - |
| 1777333596 | 10° C | 81% | 1020.7 hPa | 0 mm | - | 0 W/m² | - |
| 1777333292 | 10° C | 81% | 1020.5 hPa | 0 mm | - | 0 W/m² | - |
| 1777332988 | 10° C | 81% | 1020.5 hPa | 0 mm | - | 0 W/m² | - |
| 1777329948 | 11.67° C | 77% | 1020.2 hPa | 0 mm | - | 0 W/m² | - |
| 1777329644 | 11.67° C | 76% | 1020.4 hPa | 0 mm | - | 0 W/m² | - |
| 1777313531 | 18.33° C | 48% | 1018.7 hPa | 0 mm | - | 0 W/m² | - |
| 1777313227 | 18.33° C | 48% | 1018.6 hPa | 0 mm | - | 0 W/m² | - |
| 1777312923 | 18.33° C | 47% | 1018.6 hPa | 0 mm | - | 0 W/m² | - |
| 1777312619 | 18.89° C | 47% | 1018.4 hPa | 0 mm | - | 0 W/m² | - |
| 1777312316 | 18.89° C | 46% | 1018.5 hPa | 0 mm | - | 0 W/m² | - |
| 1777311403 | 19.44° C | 43% | 1018.2 hPa | 0 mm | - | 0 W/m² | - |
| 1777311099 | 19.44° C | 41% | 1018.2 hPa | 0 mm | - | 0 W/m² | - |
| 1777310795 | 19.44° C | 40% | 1018.2 hPa | 0 mm | - | 1 W/m² | - |
| 1777310492 | 19.44° C | 39% | 1017.9 hPa | 0 mm | - | 1 W/m² | - |
| 1777310187 | 19.44° C | 40% | 1017.8 hPa | 0 mm | - | 1 W/m² | - |
| 1777309579 | 19.44° C | 37% | 1018.1 hPa | 0 mm | - | 1 W/m² | - |
* Rain latest hour (hover to see other rain measurements)
** Current wind speed in m/s (hover to see current wind gust speed)